Airfield :
LOGIN :

Register | Disclaimer

   EN    FR    IT 

 










Legend :    VFR   Marginal VFR   IFR   Intensive IFR   Very Intensive IFR
Visi :
Ceiling :
>= 8 km
>= 3000ft
5 to 8 km
1000 to 3000 ft
1500m to 5 km
500 to 1000 ft
800 to 1500m
200 to 500 ft
< 800m
< 200 ft
Symbols :   Thunderstorms  Fog  Heavy snow  Heavy precipitations  Wind > 20 kt
SIGMETs :     Misc.  Thunderstorms  Icing  Turbulence  Mountain Waves  Volcanic Ashes







- Airport Elevation : 299 ft
- IATA code : EDM
- Download approach charts


LFRI - La Roche Sur Yon - Les Ajoncs

CURRENT METAR :
  • 221430Z AUTO 13008KT 100V160 9999 ///TCU 20/08 Q1000 NOSIG

EXPIRED METARs :
  • 221400Z AUTO 13008KT CAVOK 20/07 Q1001 TEMPO BKN070TCU
  • 221330Z AUTO 13007KT 100V160 CAVOK 20/08 Q1001 TEMPO BKN070TCU
  • 221300Z AUTO 12008KT 080V150 9999 FEW033 OVC096 20/08 Q1001 TEMPO BKN070TCU
  • 221230Z AUTO 12013KT 090V150 CAVOK 20/07 Q1002 TEMPO BKN070TCU
  • 221200Z AUTO 12012KT 080V150 CAVOK 21/09 Q1002 NOSIG

TAF TAF LFRI
Valid from the 22 at 12:00 until the 23 at 12:00 UTC


221100Z 2212/2312 11012KT CAVOK
PROB30
TEMPO 2214/2217 -SHRA BKN070TCU
No reported NOTAMs for that airfield.



MET'MAP, your aeronautical weather chart ! - Copyright ORBIFLY December 2007 - Disclaimer

ORBIFLY MET'MAP TEAM :

Programming & Development : Alexandra Zaïnal
Concept & Development : Baudouin d'Aumeries
Co-Development & Prog : Marc-Olivier Méhu
Technical & hardware support : Manuel Goepfert

Contact : metmap@orbifly.com




SOURCES & CREDITS :

   NOAA